createdAt,value
2022-11-03T00:00:01.107Z,22.00
2022-11-03T00:02:41.664Z,22.10
2022-11-03T00:05:31.689Z,22.10
2022-11-03T00:08:05.316Z,22.20
2022-11-03T00:10:35.683Z,22.40
2022-11-03T00:13:06.677Z,22.40
2022-11-03T00:15:37.737Z,22.40
2022-11-03T00:18:08.240Z,22.50
2022-11-03T00:20:38.778Z,22.20
2022-11-03T00:23:09.237Z,22.50
2022-11-03T00:25:40.105Z,22.60
2022-11-03T00:28:10.834Z,22.60
2022-11-03T00:30:42.077Z,22.70
2022-11-03T00:33:12.759Z,22.70
2022-11-03T00:35:43.293Z,22.90
2022-11-03T00:38:14.419Z,23.00
2022-11-03T00:40:44.738Z,22.90
2022-11-03T00:43:16.654Z,23.00
2022-11-03T00:45:46.848Z,23.10
2022-11-03T00:48:36.962Z,23.10
2022-11-03T00:51:24.292Z,22.60
2022-11-03T00:54:06.123Z,22.50
2022-11-03T00:56:40.981Z,22.50
2022-11-03T00:59:12.828Z,22.40
2022-11-03T01:01:47.259Z,22.50
2022-11-03T01:04:40.417Z,22.50
2022-11-03T01:07:10.813Z,22.50
2022-11-03T01:09:42.845Z,22.70
2022-11-03T01:12:16.878Z,23.00
2022-11-03T01:14:50.510Z,23.40
2022-11-03T01:17:29.762Z,23.50
2022-11-03T01:20:00.425Z,23.50
2022-11-03T01:22:30.447Z,23.50
2022-11-03T01:25:00.825Z,23.70
2022-11-03T01:27:31.185Z,23.90
2022-11-03T01:30:01.492Z,24.10
2022-11-03T01:32:32.553Z,24.50
2022-11-03T01:35:03.375Z,24.60
2022-11-03T01:37:34.441Z,24.50
2022-11-03T01:40:04.774Z,24.30
2022-11-03T01:42:35.122Z,24.50
2022-11-03T01:45:05.748Z,24.50
2022-11-03T01:47:38.523Z,24.60
2022-11-03T01:50:15.032Z,24.60
2022-11-03T01:52:58.878Z,25.10
2022-11-03T01:55:33.874Z,25.30
2022-11-03T01:58:21.718Z,25.40
2022-11-03T02:00:56.618Z,25.60
2022-11-03T02:03:27.698Z,25.20
2022-11-03T02:05:59.283Z,25.70
2022-11-03T02:09:00.726Z,25.40
2022-11-03T02:11:52.987Z,25.50
2022-11-03T02:14:24.098Z,25.90
2022-11-03T02:16:58.428Z,26.10
2022-11-03T02:19:42.863Z,26.10
2022-11-03T02:22:43.223Z,26.30
2022-11-03T02:25:52.420Z,26.30
2022-11-03T02:28:27.439Z,25.90
2022-11-03T02:31:32.360Z,26.50
2022-11-03T02:34:25.512Z,26.40
2022-11-03T02:37:01.501Z,26.50
2022-11-03T02:39:50.620Z,26.90
2022-11-03T02:42:24.089Z,27.00
2022-11-03T02:44:55.991Z,27.20
2022-11-03T02:47:28.072Z,27.50
2022-11-03T02:49:58.772Z,27.50
2022-11-03T02:52:49.937Z,27.00
2022-11-03T02:55:59.429Z,27.30
2022-11-03T02:59:00.840Z,27.60
2022-11-03T03:01:48.555Z,28.00
2022-11-03T03:04:43.070Z,27.90
2022-11-03T03:07:18.998Z,27.60
2022-11-03T03:10:04.594Z,27.70
2022-11-03T03:12:36.860Z,27.80
2022-11-03T03:15:09.640Z,27.80
2022-11-03T03:18:03.490Z,27.90
2022-11-03T03:20:53.135Z,28.30
2022-11-03T03:23:30.776Z,28.30
2022-11-03T03:26:26.473Z,28.20
2022-11-03T03:29:04.747Z,28.60
2022-11-03T03:31:40.503Z,28.80
2022-11-03T03:34:31.261Z,29.10
2022-11-03T03:37:03.094Z,29.10
2022-11-03T03:39:37.416Z,29.00
2022-11-03T03:42:10.537Z,29.10
2022-11-03T03:44:43.389Z,29.00
2022-11-03T03:47:20.980Z,28.90
2022-11-03T03:49:51.604Z,29.00
2022-11-03T03:52:22.134Z,29.10
2022-11-03T03:54:52.579Z,28.80
2022-11-03T03:57:26.969Z,29.50
2022-11-03T03:59:57.889Z,29.70
2022-11-03T04:02:29.498Z,29.80
2022-11-03T04:05:01.238Z,29.70
2022-11-03T04:07:51.874Z,29.70
2022-11-03T04:10:24.770Z,29.90
2022-11-03T04:13:15.281Z,30.00
2022-11-03T04:16:05.162Z,30.30
2022-11-03T04:18:55.270Z,30.20
2022-11-03T04:21:45.528Z,30.00
2022-11-03T04:24:15.974Z,30.00
2022-11-03T04:26:46.235Z,30.10
2022-11-03T04:29:16.930Z,30.30
2022-11-03T04:31:47.837Z,30.60
2022-11-03T04:34:17.854Z,30.70
2022-11-03T04:36:47.887Z,30.80
2022-11-03T04:39:21.171Z,30.90
2022-11-03T04:41:51.494Z,31.00
2022-11-03T04:44:21.525Z,30.70
2022-11-03T04:46:51.893Z,30.60
2022-11-03T04:49:25.437Z,30.70
2022-11-03T04:51:56.074Z,30.80
2022-11-03T04:54:27.551Z,30.80
2022-11-03T04:56:58.544Z,31.20
2022-11-03T04:59:29.584Z,31.10
2022-11-03T05:01:59.851Z,31.30
2022-11-03T05:04:30.992Z,31.20
2022-11-03T05:07:01.199Z,31.20
2022-11-03T05:09:33.290Z,31.40
2022-11-03T05:12:03.956Z,31.60
2022-11-03T05:14:34.830Z,31.50
2022-11-03T05:17:09.324Z,31.30
2022-11-03T05:19:43.984Z,31.40
2022-11-03T05:22:20.902Z,31.50
2022-11-03T05:24:55.369Z,31.30
2022-11-03T05:27:26.827Z,31.50
2022-11-03T05:30:01.508Z,31.20
2022-11-03T05:32:35.644Z,31.60
2022-11-03T05:35:06.309Z,31.80
2022-11-03T05:37:39.958Z,31.70
2022-11-03T05:40:29.814Z,32.10
2022-11-03T05:43:03.000Z,32.00
2022-11-03T05:45:35.793Z,31.90
2022-11-03T05:48:28.677Z,31.50
2022-11-03T05:51:01.810Z,32.00
2022-11-03T05:53:34.997Z,31.90
2022-11-03T05:56:08.093Z,31.90
2022-11-03T05:58:41.085Z,32.10
2022-11-03T06:01:34.354Z,32.20
2022-11-03T06:04:29.735Z,32.40
2022-11-03T06:07:05.952Z,32.30
2022-11-03T06:09:36.628Z,32.50
2022-11-03T06:12:12.714Z,32.50
2022-11-03T06:14:43.381Z,32.70
2022-11-03T06:17:24.810Z,32.90
2022-11-03T06:19:59.251Z,32.30
2022-11-03T06:22:38.458Z,32.40
2022-11-03T06:25:37.206Z,32.70
2022-11-03T06:28:12.795Z,32.90
2022-11-03T06:30:44.647Z,33.00
2022-11-03T06:33:25.230Z,33.30
2022-11-03T06:36:02.048Z,33.00
2022-11-03T06:38:36.826Z,33.00
2022-11-03T06:41:07.370Z,33.20
2022-11-03T06:43:43.611Z,33.20
2022-11-03T06:46:25.211Z,33.50
2022-11-03T06:49:00.998Z,33.50
2022-11-03T06:51:32.961Z,33.40
2022-11-03T06:54:07.594Z,33.20
2022-11-03T06:56:39.524Z,32.90
2022-11-03T06:59:12.627Z,33.30
2022-11-03T07:01:43.315Z,33.50
2022-11-03T07:04:30.056Z,33.40
2022-11-03T07:07:04.933Z,33.20
2022-11-03T07:09:35.302Z,32.90
2022-11-03T07:12:06.333Z,33.20
2022-11-03T07:14:36.483Z,33.20
2022-11-03T07:17:14.147Z,33.40
2022-11-03T07:19:47.040Z,33.50
2022-11-03T07:22:35.622Z,33.60
2022-11-03T07:25:09.504Z,33.20
2022-11-03T07:27:41.345Z,33.00
2022-11-03T07:30:26.310Z,33.20
2022-11-03T07:33:02.206Z,33.40
2022-11-03T07:36:13.874Z,33.60
2022-11-03T07:38:37.018Z,33.60
2022-11-03T07:41:08.440Z,33.50
2022-11-03T07:43:39.929Z,33.20
2022-11-03T07:46:18.877Z,33.10
2022-11-03T07:49:00.158Z,33.20
2022-11-03T07:51:39.623Z,33.20
2022-11-03T07:54:35.017Z,33.50
2022-11-03T07:57:26.963Z,33.70
2022-11-03T08:00:09.099Z,33.50
2022-11-03T08:02:53.198Z,33.20
2022-11-03T08:05:23.795Z,33.30
2022-11-03T08:07:54.463Z,33.40
2022-11-03T08:10:24.600Z,33.40
2022-11-03T08:12:54.571Z,33.30
2022-11-03T08:15:24.592Z,33.20
2022-11-03T08:17:56.308Z,33.10
2022-11-03T08:20:26.660Z,32.90
2022-11-03T08:23:20.080Z,32.90
2022-11-03T08:25:47.843Z,32.70
2022-11-03T08:28:18.475Z,32.90
2022-11-03T08:30:49.279Z,33.00
2022-11-03T08:33:19.967Z,32.90
2022-11-03T08:35:50.470Z,32.70
2022-11-03T08:38:21.182Z,32.80
2022-11-03T08:40:55.121Z,32.90
2022-11-03T08:43:25.855Z,32.90
2022-11-03T08:46:03.441Z,32.60
2022-11-03T08:48:40.401Z,32.50
2022-11-03T08:51:14.891Z,32.60
2022-11-03T08:53:46.214Z,32.50
2022-11-03T08:56:20.467Z,32.50
2022-11-03T08:58:52.560Z,32.40
2022-11-03T09:01:22.779Z,32.10
2022-11-03T09:03:53.482Z,32.00
2022-11-03T09:06:23.967Z,32.00
2022-11-03T09:11:45.210Z,31.80
2022-11-03T09:14:15.465Z,31.50
2022-11-03T09:16:45.648Z,31.60
2022-11-03T09:19:16.384Z,31.60
2022-11-03T09:21:47.091Z,31.60
2022-11-03T09:24:17.523Z,31.50
2022-11-03T09:26:48.955Z,31.50
2022-11-03T09:29:19.435Z,31.50
2022-11-03T09:31:50.367Z,31.40
2022-11-03T09:34:20.728Z,31.20
2022-11-03T09:36:53.321Z,31.30
2022-11-03T09:39:23.842Z,31.40
2022-11-03T09:41:58.635Z,31.40
2022-11-03T09:44:30.082Z,31.30
2022-11-03T09:47:01.949Z,31.30
2022-11-03T09:49:35.333Z,31.10
2022-11-03T09:52:06.515Z,31.10
2022-11-03T09:54:36.913Z,31.10
2022-11-03T09:57:16.992Z,30.90
2022-11-03T09:59:50.569Z,30.70
2022-11-03T10:02:40.345Z,30.70
2022-11-03T10:07:47.401Z,30.60
2022-11-03T10:10:21.437Z,30.30
2022-11-03T10:12:54.627Z,30.20
2022-11-03T10:15:26.671Z,30.20
2022-11-03T10:17:57.561Z,30.10
2022-11-03T10:20:31.072Z,30.00
2022-11-03T10:23:01.003Z,29.90
2022-11-03T10:25:37.578Z,29.90
2022-11-03T10:28:30.586Z,29.70
2022-11-03T10:31:22.816Z,29.40
2022-11-03T10:33:59.614Z,29.50
2022-11-03T10:36:31.913Z,29.50
2022-11-03T10:39:30.724Z,29.30
2022-11-03T10:42:02.652Z,29.30
2022-11-03T10:44:34.099Z,29.20
2022-11-03T10:47:11.232Z,29.00
2022-11-03T10:49:43.915Z,28.80
2022-11-03T10:52:25.867Z,28.70
2022-11-03T10:54:59.121Z,28.60
2022-11-03T10:57:30.129Z,28.40
2022-11-03T11:00:01.347Z,28.50
2022-11-03T11:02:34.394Z,28.70
2022-11-03T11:05:14.178Z,28.70
2022-11-03T11:07:47.015Z,28.50
2022-11-03T11:10:33.008Z,28.50
2022-11-03T11:13:27.412Z,28.50
2022-11-03T11:16:01.246Z,28.60
2022-11-03T11:19:03.697Z,28.50
2022-11-03T11:22:01.387Z,28.50
2022-11-03T11:24:59.043Z,28.50
2022-11-03T11:27:58.582Z,28.50
2022-11-03T11:30:58.304Z,28.50
2022-11-03T11:33:34.692Z,28.30
2022-11-03T11:36:07.564Z,28.30
2022-11-03T11:38:58.010Z,28.20
2022-11-03T11:42:07.694Z,28.00
2022-11-03T11:45:03.584Z,27.90
2022-11-03T11:47:58.010Z,27.90
2022-11-03T11:50:31.303Z,27.90
2022-11-03T11:53:06.461Z,27.60
2022-11-03T11:55:44.898Z,27.40
2022-11-03T11:58:24.181Z,26.90
2022-11-03T12:01:03.933Z,27.00
2022-11-03T12:03:43.391Z,27.30
2022-11-03T12:06:17.629Z,27.40
2022-11-03T12:08:48.025Z,27.40
2022-11-03T12:11:38.230Z,26.90
2022-11-03T12:14:22.747Z,26.50
2022-11-03T12:16:54.414Z,26.20
2022-11-03T12:19:51.761Z,26.20
2022-11-03T12:22:42.720Z,26.20
2022-11-03T12:25:38.920Z,26.50
2022-11-03T12:28:09.950Z,26.70
2022-11-03T12:30:40.942Z,26.80
2022-11-03T12:33:12.084Z,26.80
2022-11-03T12:35:42.540Z,26.90
2022-11-03T12:38:13.288Z,26.80
2022-11-03T12:40:43.758Z,26.80
2022-11-03T12:43:14.760Z,26.80
2022-11-03T12:45:45.478Z,26.80
2022-11-03T12:48:16.234Z,26.70
2022-11-03T12:50:46.692Z,26.60
2022-11-03T12:53:19.349Z,26.60
2022-11-03T12:55:50.021Z,26.50
2022-11-03T12:58:20.849Z,26.50
2022-11-03T13:00:54.995Z,26.40
2022-11-03T13:03:26.968Z,26.40
2022-11-03T13:05:57.567Z,26.40
2022-11-03T13:08:28.020Z,26.30
2022-11-03T13:10:58.226Z,26.30
2022-11-03T13:13:29.280Z,26.20
2022-11-03T13:16:00.511Z,26.20
2022-11-03T13:18:30.952Z,26.20
2022-11-03T13:21:01.394Z,26.20
2022-11-03T13:23:31.510Z,26.20
2022-11-03T13:26:01.775Z,26.00
2022-11-03T13:28:32.886Z,26.00
2022-11-03T13:31:03.808Z,25.80
2022-11-03T13:33:33.888Z,25.80
2022-11-03T13:36:04.573Z,25.80
2022-11-03T13:38:35.457Z,26.00
2022-11-03T13:41:08.996Z,25.90
2022-11-03T13:43:40.000Z,25.90
2022-11-03T13:46:10.071Z,25.70
2022-11-03T13:51:30.447Z,25.70
2022-11-03T13:59:41.010Z,25.60
2022-11-03T14:05:06.997Z,25.60
2022-11-03T14:07:38.097Z,25.40
2022-11-03T14:10:08.658Z,25.40
2022-11-03T14:12:39.495Z,25.50
2022-11-03T14:15:13.159Z,25.40
2022-11-03T14:17:43.739Z,25.40
2022-11-03T14:20:15.142Z,25.30
2022-11-03T14:22:45.271Z,25.10
2022-11-03T14:25:15.891Z,24.80
2022-11-03T14:27:46.498Z,24.90
2022-11-03T14:30:17.027Z,24.90
2022-11-03T14:32:47.099Z,25.00
2022-11-03T14:35:17.537Z,25.10
2022-11-03T14:37:48.046Z,25.00
2022-11-03T14:40:38.459Z,24.30
2022-11-03T14:43:10.415Z,23.90
2022-11-03T14:45:42.583Z,24.10
2022-11-03T14:48:12.936Z,24.30
2022-11-03T14:50:43.319Z,24.50
2022-11-03T14:53:14.567Z,24.60
2022-11-03T14:55:45.199Z,24.60
2022-11-03T14:58:15.635Z,24.60
2022-11-03T15:00:47.142Z,24.70
2022-11-03T15:03:18.536Z,24.70
2022-11-03T15:05:49.136Z,24.40
2022-11-03T15:08:21.415Z,24.30
2022-11-03T15:10:53.198Z,24.40
2022-11-03T15:13:23.893Z,24.40
2022-11-03T15:15:54.809Z,24.40
2022-11-03T15:18:25.434Z,24.40
2022-11-03T15:20:56.555Z,24.30
2022-11-03T15:26:18.248Z,24.10
2022-11-03T15:28:48.720Z,24.00
2022-11-03T15:31:19.692Z,23.90
2022-11-03T15:33:50.055Z,23.60
2022-11-03T15:36:21.070Z,23.60
2022-11-03T15:38:51.290Z,23.80
2022-11-03T15:41:22.128Z,23.70
2022-11-03T15:43:52.970Z,23.70
2022-11-03T15:46:23.135Z,23.70
2022-11-03T15:48:56.096Z,23.50
2022-11-03T15:51:26.285Z,23.00
2022-11-03T15:53:58.933Z,22.70
2022-11-03T15:56:30.337Z,23.20
2022-11-03T15:59:01.115Z,23.40
2022-11-03T16:01:32.024Z,23.10
2022-11-03T16:04:02.654Z,22.70
2022-11-03T16:07:01.811Z,23.10
2022-11-03T16:09:23.293Z,22.90
2022-11-03T16:11:53.745Z,22.60
2022-11-03T16:14:23.551Z,22.80
2022-11-03T16:16:54.124Z,23.20
2022-11-03T16:19:24.170Z,23.30
2022-11-03T16:21:54.573Z,23.30
2022-11-03T16:24:33.217Z,23.40
2022-11-03T16:27:06.300Z,23.50
2022-11-03T16:29:36.489Z,23.00
2022-11-03T16:32:06.824Z,23.00
2022-11-03T16:34:37.185Z,23.20
2022-11-03T16:37:07.175Z,23.30
2022-11-03T16:39:37.370Z,22.90
2022-11-03T16:42:07.605Z,22.70
2022-11-03T16:44:39.063Z,22.50
2022-11-03T16:47:09.829Z,22.60
2022-11-03T16:49:43.321Z,22.90
2022-11-03T16:52:13.381Z,23.10
2022-11-03T16:54:43.746Z,23.30
2022-11-03T16:57:14.175Z,23.20
2022-11-03T16:59:44.854Z,23.20
2022-11-03T17:02:16.907Z,23.10
2022-11-03T17:04:47.720Z,22.70
2022-11-03T17:07:18.709Z,22.90
2022-11-03T17:09:50.213Z,22.40
2022-11-03T17:12:20.480Z,22.20
2022-11-03T17:14:55.570Z,22.10
2022-11-03T17:17:27.134Z,22.00
2022-11-03T17:19:57.509Z,22.00
2022-11-03T17:22:28.228Z,22.10
2022-11-03T17:24:58.216Z,22.10
2022-11-03T17:27:34.441Z,22.10
2022-11-03T17:30:10.457Z,22.30
2022-11-03T17:32:44.282Z,22.60
2022-11-03T17:35:42.637Z,22.80
2022-11-03T17:38:18.868Z,22.70
2022-11-03T17:40:51.039Z,22.60
2022-11-03T17:43:27.251Z,22.60
2022-11-03T17:45:57.643Z,22.60
2022-11-03T17:48:28.382Z,22.60
2022-11-03T17:50:59.504Z,22.80
2022-11-03T17:53:33.545Z,22.70
2022-11-03T17:58:55.151Z,22.70
2022-11-03T18:01:28.586Z,22.60
2022-11-03T18:03:58.977Z,22.50
2022-11-03T18:06:29.396Z,22.50
2022-11-03T18:09:00.881Z,22.50
2022-11-03T18:11:52.910Z,22.50
2022-11-03T18:14:23.849Z,22.50
2022-11-03T18:16:53.921Z,22.10
2022-11-03T18:19:24.700Z,21.90
2022-11-03T18:21:55.125Z,21.90
2022-11-03T18:24:25.847Z,21.90
2022-11-03T18:26:56.654Z,21.60
2022-11-03T18:29:27.202Z,21.60
2022-11-03T18:31:58.661Z,21.70
2022-11-03T18:34:29.724Z,21.80
2022-11-03T18:37:00.114Z,22.10
2022-11-03T18:39:31.380Z,22.10
2022-11-03T18:42:01.934Z,21.80
2022-11-03T18:44:32.676Z,22.00
2022-11-03T18:47:03.666Z,21.80
2022-11-03T18:49:35.242Z,21.50
2022-11-03T18:52:09.556Z,21.40
2022-11-03T18:54:43.182Z,21.40
2022-11-03T18:57:15.218Z,21.40
2022-11-03T18:59:47.320Z,21.40
2022-11-03T19:02:27.803Z,21.60
2022-11-03T19:04:58.208Z,21.50
2022-11-03T19:07:33.121Z,21.50
2022-11-03T19:10:08.391Z,21.30
2022-11-03T19:12:41.854Z,21.30
2022-11-03T19:15:30.461Z,21.20
2022-11-03T19:18:02.001Z,21.20
2022-11-03T19:20:32.742Z,21.50
2022-11-03T19:23:04.821Z,21.60
2022-11-03T19:25:35.849Z,21.70
2022-11-03T19:28:07.519Z,21.60
2022-11-03T19:30:38.062Z,21.50
2022-11-03T19:33:10.129Z,21.40
2022-11-03T19:35:40.365Z,21.50
2022-11-03T19:38:15.843Z,21.40
2022-11-03T19:41:06.840Z,21.50
2022-11-03T19:43:37.325Z,21.60
2022-11-03T19:46:08.321Z,21.60
2022-11-03T19:48:39.501Z,21.40
2022-11-03T19:51:10.111Z,21.20
2022-11-03T19:53:44.512Z,21.10
2022-11-03T19:56:18.585Z,21.40
2022-11-03T19:58:49.156Z,21.60
2022-11-03T20:01:20.137Z,21.60
2022-11-03T20:03:50.668Z,21.60
2022-11-03T20:06:21.495Z,21.50
2022-11-03T20:08:52.131Z,21.30
2022-11-03T20:11:23.709Z,21.40
2022-11-03T20:13:54.981Z,21.30
2022-11-03T20:16:27.675Z,21.40
2022-11-03T20:18:57.968Z,21.50
2022-11-03T20:21:34.318Z,21.50
2022-11-03T20:24:06.607Z,21.50
2022-11-03T20:26:37.496Z,21.40
2022-11-03T20:29:14.340Z,21.40
2022-11-03T20:31:46.241Z,21.60
2022-11-03T20:34:17.483Z,21.60
2022-11-03T20:36:49.614Z,21.60
2022-11-03T20:39:20.732Z,21.60
2022-11-03T20:41:58.073Z,21.60
2022-11-03T20:44:28.557Z,21.60
2022-11-03T20:46:58.911Z,21.60
2022-11-03T20:49:29.526Z,21.50
2022-11-03T20:52:00.691Z,21.50
2022-11-03T20:54:32.593Z,21.60
2022-11-03T20:57:02.831Z,21.40
2022-11-03T20:59:36.031Z,21.30
2022-11-03T21:02:14.276Z,21.30
2022-11-03T21:04:45.426Z,21.00
2022-11-03T21:07:15.965Z,20.90
2022-11-03T21:09:46.281Z,21.10
2022-11-03T21:12:17.012Z,21.10
2022-11-03T21:15:06.950Z,21.20
2022-11-03T21:17:57.579Z,21.10
2022-11-03T21:20:28.249Z,21.00
2022-11-03T21:22:58.887Z,21.00
2022-11-03T21:25:29.670Z,21.10
2022-11-03T21:28:00.855Z,21.20
2022-11-03T21:30:31.432Z,21.10
2022-11-03T21:33:02.153Z,21.10
2022-11-03T21:35:32.460Z,21.10
2022-11-03T21:38:03.573Z,20.90
2022-11-03T21:40:34.295Z,20.90
2022-11-03T21:43:23.874Z,21.00
2022-11-03T21:45:53.831Z,21.00
2022-11-03T21:48:43.463Z,21.10
2022-11-03T21:51:13.736Z,21.10
2022-11-03T21:53:43.901Z,21.00
2022-11-03T21:56:15.718Z,20.90
2022-11-03T21:58:46.739Z,20.70
2022-11-03T22:01:17.592Z,20.80
2022-11-03T22:03:47.696Z,20.80
2022-11-03T22:06:17.952Z,20.80
2022-11-03T22:08:48.426Z,20.90
2022-11-03T22:11:25.205Z,20.70
2022-11-03T22:13:58.914Z,20.70
2022-11-03T22:16:38.652Z,20.70
2022-11-03T22:19:42.687Z,20.50
2022-11-03T22:22:35.312Z,20.40
2022-11-03T22:25:24.927Z,20.40
2022-11-03T22:27:54.914Z,20.50
2022-11-03T22:30:44.558Z,20.50
2022-11-03T22:33:15.525Z,20.60
2022-11-03T22:36:05.436Z,20.60
2022-11-03T22:38:55.693Z,20.60
2022-11-03T22:41:45.620Z,20.40
2022-11-03T22:44:35.758Z,20.40
2022-11-03T22:47:08.292Z,20.50
2022-11-03T22:49:39.329Z,20.60
2022-11-03T22:52:09.984Z,20.50
2022-11-03T22:54:40.341Z,20.50
2022-11-03T22:57:14.695Z,20.50
2022-11-03T22:59:44.829Z,20.70
2022-11-03T23:02:15.903Z,20.60
2022-11-03T23:04:47.813Z,20.30
2022-11-03T23:07:18.468Z,20.20
2022-11-03T23:09:49.472Z,20.00
2022-11-03T23:12:20.128Z,19.90
2022-11-03T23:15:09.767Z,20.00
2022-11-03T23:17:59.649Z,20.10
2022-11-03T23:20:49.545Z,20.10
2022-11-03T23:23:39.805Z,20.10
2022-11-03T23:26:11.053Z,20.20
2022-11-03T23:28:42.103Z,20.30
2022-11-03T23:31:14.135Z,20.40
2022-11-03T23:33:45.054Z,20.50
2022-11-03T23:36:18.137Z,20.60
2022-11-03T23:38:48.747Z,20.70
2022-11-03T23:41:20.949Z,20.80
2022-11-03T23:43:51.818Z,20.90
2022-11-03T23:46:44.530Z,21.00
2022-11-03T23:49:16.066Z,21.00
2022-11-03T23:51:46.944Z,21.00
2022-11-03T23:54:17.739Z,21.20
2022-11-03T23:57:09.213Z,21.10
2022-11-03T23:59:40.095Z,21.10
